sensor_id;sensor_type;location;lat;lon;timestamp;P1;durP1;ratioP1;P2;durP2;ratioP2
61956;SDS011;47916;45.544;10.166;2022-09-09T00:00:14;8.77;;;2.70;;
61956;SDS011;47916;45.544;10.166;2022-09-09T00:00:25;5.72;;;2.22;;
61956;SDS011;47916;45.544;10.166;2022-09-09T00:00:37;4.80;;;2.38;;
61956;SDS011;47916;45.544;10.166;2022-09-09T00:00:53;7.38;;;2.60;;
61956;SDS011;47916;45.544;10.166;2022-09-09T00:01:28;6.05;;;2.85;;
61956;SDS011;47916;45.544;10.166;2022-09-09T00:02:19;5.32;;;2.42;;
61956;SDS011;47916;45.544;10.166;2022-09-09T00:02:31;6.38;;;2.70;;
61956;SDS011;47916;45.544;10.166;2022-09-09T00:02:44;5.20;;;2.40;;
61956;SDS011;47916;45.544;10.166;2022-09-09T00:03:17;5.15;;;2.38;;
61956;SDS011;47916;45.544;10.166;2022-09-09T00:03:46;7.65;;;2.85;;
61956;SDS011;47916;45.544;10.166;2022-09-09T00:04:09;8.20;;;3.08;;
61956;SDS011;47916;45.544;10.166;2022-09-09T00:04:26;7.40;;;2.88;;
61956;SDS011;47916;45.544;10.166;2022-09-09T00:04:38;6.78;;;2.67;;
61956;SDS011;47916;45.544;10.166;2022-09-09T00:05:33;6.13;;;2.53;;
61956;SDS011;47916;45.544;10.166;2022-09-09T00:06:07;6.40;;;2.50;;
61956;SDS011;47916;45.544;10.166;2022-09-09T00:06:42;7.43;;;2.65;;
61956;SDS011;47916;45.544;10.166;2022-09-09T00:07:39;6.43;;;2.53;;
61956;SDS011;47916;45.544;10.166;2022-09-09T00:07:52;5.93;;;2.55;;
61956;SDS011;47916;45.544;10.166;2022-09-09T00:08:06;4.90;;;2.50;;
61956;SDS011;47916;45.544;10.166;2022-09-09T00:08:25;6.43;;;2.58;;
61956;SDS011;47916;45.544;10.166;2022-09-09T00:08:49;7.80;;;2.63;;
61956;SDS011;47916;45.544;10.166;2022-09-09T00:09:12;7.50;;;2.58;;
61956;SDS011;47916;45.544;10.166;2022-09-09T00:09:26;8.45;;;2.80;;
61956;SDS011;47916;45.544;10.166;2022-09-09T00:09:50;7.85;;;2.90;;
61956;SDS011;47916;45.544;10.166;2022-09-09T00:10:34;8.25;;;2.92;;
61956;SDS011;47916;45.544;10.166;2022-09-09T00:10:48;5.68;;;2.70;;
61956;SDS011;47916;45.544;10.166;2022-09-09T00:11:03;7.78;;;3.00;;
61956;SDS011;47916;45.544;10.166;2022-09-09T00:11:15;9.23;;;3.08;;
61956;SDS011;47916;45.544;10.166;2022-09-09T00:11:54;8.82;;;3.00;;
61956;SDS011;47916;45.544;10.166;2022-09-09T00:12:12;6.82;;;3.03;;
61956;SDS011;47916;45.544;10.166;2022-09-09T00:13:21;6.75;;;2.95;;
61956;SDS011;47916;45.544;10.166;2022-09-09T00:13:48;8.27;;;3.05;;
61956;SDS011;47916;45.544;10.166;2022-09-09T00:14:03;9.02;;;3.08;;
61956;SDS011;47916;45.544;10.166;2022-09-09T00:14:26;8.90;;;3.17;;
61956;SDS011;47916;45.544;10.166;2022-09-09T00:15:11;6.93;;;2.55;;
61956;SDS011;47916;45.544;10.166;2022-09-09T00:15:25;6.75;;;2.60;;
61956;SDS011;47916;45.544;10.166;2022-09-09T00:16:25;8.52;;;2.83;;
61956;SDS011;47916;45.544;10.166;2022-09-09T00:16:38;14.00;;;3.03;;
61956;SDS011;47916;45.544;10.166;2022-09-09T00:16:55;11.35;;;2.88;;
61956;SDS011;47916;45.544;10.166;2022-09-09T00:17:18;10.35;;;2.63;;
61956;SDS011;47916;45.544;10.166;2022-09-09T00:19:24;9.43;;;2.72;;
61956;SDS011;47916;45.544;10.166;2022-09-09T00:19:50;9.38;;;3.00;;
61956;SDS011;47916;45.544;10.166;2022-09-09T00:20:38;7.15;;;2.90;;
61956;SDS011;47916;45.544;10.166;2022-09-09T00:20:55;7.68;;;3.15;;
61956;SDS011;47916;45.544;10.166;2022-09-09T00:21:13;6.88;;;3.30;;
61956;SDS011;47916;45.544;10.166;2022-09-09T00:21:33;6.03;;;2.88;;
61956;SDS011;47916;45.544;10.166;2022-09-09T00:21:49;5.68;;;2.42;;
61956;SDS011;47916;45.544;10.166;2022-09-09T00:22:25;6.63;;;2.38;;
61956;SDS011;47916;45.544;10.166;2022-09-09T00:22:36;5.40;;;2.42;;
61956;SDS011;47916;45.544;10.166;2022-09-09T00:23:37;7.53;;;3.00;;
61956;SDS011;47916;45.544;10.166;2022-09-09T00:23:50;6.50;;;2.67;;
61956;SDS011;47916;45.544;10.166;2022-09-09T00:24:23;7.22;;;2.45;;
61956;SDS011;47916;45.544;10.166;2022-09-09T00:24:38;5.97;;;2.30;;
61956;SDS011;47916;45.544;10.166;2022-09-09T00:24:53;5.97;;;2.30;;
61956;SDS011;47916;45.544;10.166;2022-09-09T00:25:12;6.03;;;2.40;;
61956;SDS011;47916;45.544;10.166;2022-09-09T00:25:29;6.65;;;2.70;;
61956;SDS011;47916;45.544;10.166;2022-09-09T00:25:45;4.45;;;2.47;;
61956;SDS011;47916;45.544;10.166;2022-09-09T00:26:31;8.98;;;2.58;;
61956;SDS011;47916;45.544;10.166;2022-09-09T00:26:45;5.47;;;2.47;;
61956;SDS011;47916;45.544;10.166;2022-09-09T00:27:04;5.68;;;2.28;;
61956;SDS011;47916;45.544;10.166;2022-09-09T00:27:36;7.72;;;2.53;;
61956;SDS011;47916;45.544;10.166;2022-09-09T00:27:48;7.43;;;2.83;;
61956;SDS011;47916;45.544;10.166;2022-09-09T00:28:00;9.25;;;2.90;;
61956;SDS011;47916;45.544;10.166;2022-09-09T00:28:13;8.38;;;2.92;;
61956;SDS011;47916;45.544;10.166;2022-09-09T00:28:26;6.18;;;2.60;;
61956;SDS011;47916;45.544;10.166;2022-09-09T00:29:38;6.20;;;2.70;;
61956;SDS011;47916;45.544;10.166;2022-09-09T00:29:56;6.70;;;2.85;;
61956;SDS011;47916;45.544;10.166;2022-09-09T00:30:27;8.30;;;2.67;;
61956;SDS011;47916;45.544;10.166;2022-09-09T00:30:41;8.25;;;3.00;;
61956;SDS011;47916;45.544;10.166;2022-09-09T00:30:52;6.20;;;2.95;;
61956;SDS011;47916;45.544;10.166;2022-09-09T00:31:14;6.80;;;2.88;;
61956;SDS011;47916;45.544;10.166;2022-09-09T00:31:29;9.35;;;2.55;;
61956;SDS011;47916;45.544;10.166;2022-09-09T00:31:40;7.90;;;2.72;;
61956;SDS011;47916;45.544;10.166;2022-09-09T00:31:54;8.43;;;2.55;;
61956;SDS011;47916;45.544;10.166;2022-09-09T00:32:14;7.63;;;2.53;;
61956;SDS011;47916;45.544;10.166;2022-09-09T00:32:27;5.28;;;2.70;;
61956;SDS011;47916;45.544;10.166;2022-09-09T00:32:38;5.95;;;2.60;;
61956;SDS011;47916;45.544;10.166;2022-09-09T00:32:51;6.95;;;2.55;;
61956;SDS011;47916;45.544;10.166;2022-09-09T00:33:11;8.90;;;2.87;;
61956;SDS011;47916;45.544;10.166;2022-09-09T00:33:24;9.23;;;2.80;;
61956;SDS011;47916;45.544;10.166;2022-09-09T00:33:36;8.93;;;2.70;;
61956;SDS011;47916;45.544;10.166;2022-09-09T00:33:47;9.93;;;2.70;;
61956;SDS011;47916;45.544;10.166;2022-09-09T00:34:21;6.97;;;2.72;;
61956;SDS011;47916;45.544;10.166;2022-09-09T00:34:33;7.68;;;2.70;;
61956;SDS011;47916;45.544;10.166;2022-09-09T00:34:48;6.30;;;2.50;;
61956;SDS011;47916;45.544;10.166;2022-09-09T00:35:02;6.60;;;2.15;;
61956;SDS011;47916;45.544;10.166;2022-09-09T00:35:18;8.02;;;2.42;;
61956;SDS011;47916;45.544;10.166;2022-09-09T00:35:31;7.00;;;2.60;;
61956;SDS011;47916;45.544;10.166;2022-09-09T00:35:44;6.13;;;2.47;;
61956;SDS011;47916;45.544;10.166;2022-09-09T00:35:57;7.65;;;2.50;;
61956;SDS011;47916;45.544;10.166;2022-09-09T00:36:12;8.13;;;2.50;;
61956;SDS011;47916;45.544;10.166;2022-09-09T00:36:24;7.57;;;2.45;;
61956;SDS011;47916;45.544;10.166;2022-09-09T00:36:36;6.57;;;2.60;;
61956;SDS011;47916;45.544;10.166;2022-09-09T00:36:48;7.55;;;2.60;;
61956;SDS011;47916;45.544;10.166;2022-09-09T00:37:01;8.55;;;3.10;;
61956;SDS011;47916;45.544;10.166;2022-09-09T00:37:13;8.82;;;3.13;;
61956;SDS011;47916;45.544;10.166;2022-09-09T00:37:25;10.23;;;3.42;;
61956;SDS011;47916;45.544;10.166;2022-09-09T00:37:37;7.95;;;3.00;;
61956;SDS011;47916;45.544;10.166;2022-09-09T00:37:50;6.45;;;2.80;;
61956;SDS011;47916;45.544;10.166;2022-09-09T00:38:15;5.82;;;2.75;;
61956;SDS011;47916;45.544;10.166;2022-09-09T00:38:48;7.63;;;2.58;;
61956;SDS011;47916;45.544;10.166;2022-09-09T00:39:00;7.30;;;2.47;;
61956;SDS011;47916;45.544;10.166;2022-09-09T00:39:17;4.22;;;2.47;;
61956;SDS011;47916;45.544;10.166;2022-09-09T00:39:37;6.13;;;2.70;;
61956;SDS011;47916;45.544;10.166;2022-09-09T00:39:49;6.82;;;2.70;;
61956;SDS011;47916;45.544;10.166;2022-09-09T00:40:02;8.93;;;2.65;;
61956;SDS011;47916;45.544;10.166;2022-09-09T00:40:24;8.32;;;2.70;;
61956;SDS011;47916;45.544;10.166;2022-09-09T00:40:38;7.00;;;2.60;;
61956;SDS011;47916;45.544;10.166;2022-09-09T00:41:11;7.47;;;2.78;;
61956;SDS011;47916;45.544;10.166;2022-09-09T00:41:57;7.38;;;2.40;;
61956;SDS011;47916;45.544;10.166;2022-09-09T00:42:17;6.57;;;2.40;;
61956;SDS011;47916;45.544;10.166;2022-09-09T00:42:38;6.15;;;2.22;;
61956;SDS011;47916;45.544;10.166;2022-09-09T00:42:54;4.95;;;2.03;;
61956;SDS011;47916;45.544;10.166;2022-09-09T00:43:17;7.80;;;2.63;;
61956;SDS011;47916;45.544;10.166;2022-09-09T00:43:32;9.85;;;3.05;;
61956;SDS011;47916;45.544;10.166;2022-09-09T00:43:55;5.70;;;2.67;;
61956;SDS011;47916;45.544;10.166;2022-09-09T00:44:15;4.00;;;2.20;;
61956;SDS011;47916;45.544;10.166;2022-09-09T00:44:33;4.70;;;2.20;;
61956;SDS011;47916;45.544;10.166;2022-09-09T00:44:51;3.53;;;2.30;;
61956;SDS011;47916;45.544;10.166;2022-09-09T00:45:11;3.95;;;2.33;;
61956;SDS011;47916;45.544;10.166;2022-09-09T00:45:51;4.55;;;2.30;;
61956;SDS011;47916;45.544;10.166;2022-09-09T00:47:25;8.18;;;2.72;;
61956;SDS011;47916;45.544;10.166;2022-09-09T00:47:52;6.20;;;2.53;;
61956;SDS011;47916;45.544;10.166;2022-09-09T00:48:06;5.57;;;2.47;;
61956;SDS011;47916;45.544;10.166;2022-09-09T00:48:21;5.40;;;2.22;;
61956;SDS011;47916;45.544;10.166;2022-09-09T00:49:15;6.32;;;2.40;;
61956;SDS011;47916;45.544;10.166;2022-09-09T00:49:49;10.27;;;2.97;;
61956;SDS011;47916;45.544;10.166;2022-09-09T00:50:32;6.05;;;2.65;;
61956;SDS011;47916;45.544;10.166;2022-09-09T00:50:49;7.75;;;2.75;;
61956;SDS011;47916;45.544;10.166;2022-09-09T00:51:15;7.90;;;3.33;;
61956;SDS011;47916;45.544;10.166;2022-09-09T00:51:32;4.65;;;3.20;;
61956;SDS011;47916;45.544;10.166;2022-09-09T00:55:03;4.50;;;2.30;;
61956;SDS011;47916;45.544;10.166;2022-09-09T00:55:26;7.50;;;2.40;;
61956;SDS011;47916;45.544;10.166;2022-09-09T00:55:50;6.32;;;2.60;;
61956;SDS011;47916;45.544;10.166;2022-09-09T00:56:12;5.80;;;3.00;;
61956;SDS011;47916;45.544;10.166;2022-09-09T00:56:37;7.97;;;2.80;;
61956;SDS011;47916;45.544;10.166;2022-09-09T00:57:34;6.72;;;2.53;;
61956;SDS011;47916;45.544;10.166;2022-09-09T00:57:45;6.78;;;2.70;;
61956;SDS011;47916;45.544;10.166;2022-09-09T00:57:57;6.78;;;2.72;;
61956;SDS011;47916;45.544;10.166;2022-09-09T00:58:08;7.88;;;2.78;;
61956;SDS011;47916;45.544;10.166;2022-09-09T00:58:19;6.93;;;2.55;;
61956;SDS011;47916;45.544;10.166;2022-09-09T00:58:31;6.22;;;2.50;;
61956;SDS011;47916;45.544;10.166;2022-09-09T00:59:07;5.15;;;2.55;;
61956;SDS011;47916;45.544;10.166;2022-09-09T00:59:28;5.22;;;2.65;;
61956;SDS011;47916;45.544;10.166;2022-09-09T00:59:58;7.43;;;2.80;;
61956;SDS011;47916;45.544;10.166;2022-09-09T01:00:23;7.90;;;2.83;;
61956;SDS011;47916;45.544;10.166;2022-09-09T01:00:37;8.00;;;2.92;;
61956;SDS011;47916;45.544;10.166;2022-09-09T01:00:51;7.22;;;3.00;;
61956;SDS011;47916;45.544;10.166;2022-09-09T01:01:04;6.03;;;3.00;;
61956;SDS011;47916;45.544;10.166;2022-09-09T01:01:16;5.10;;;2.85;;
61956;SDS011;47916;45.544;10.166;2022-09-09T01:01:28;5.90;;;2.55;;
61956;SDS011;47916;45.544;10.166;2022-09-09T01:01:39;7.10;;;2.88;;
61956;SDS011;47916;45.544;10.166;2022-09-09T01:01:51;6.75;;;3.25;;
61956;SDS011;47916;45.544;10.166;2022-09-09T01:02:11;5.85;;;3.15;;
61956;SDS011;47916;45.544;10.166;2022-09-09T01:02:28;5.53;;;2.60;;
61956;SDS011;47916;45.544;10.166;2022-09-09T01:03:29;7.35;;;3.28;;
61956;SDS011;47916;45.544;10.166;2022-09-09T01:04:16;10.07;;;3.17;;
61956;SDS011;47916;45.544;10.166;2022-09-09T01:04:21;7.50;;;2.85;;
61956;SDS011;47916;45.544;10.166;2022-09-09T01:04:35;6.55;;;2.72;;
61956;SDS011;47916;45.544;10.166;2022-09-09T01:04:47;8.02;;;2.88;;
61956;SDS011;47916;45.544;10.166;2022-09-09T01:05:02;8.88;;;3.10;;
61956;SDS011;47916;45.544;10.166;2022-09-09T01:06:34;8.98;;;2.80;;
61956;SDS011;47916;45.544;10.166;2022-09-09T01:06:45;5.88;;;2.38;;
61956;SDS011;47916;45.544;10.166;2022-09-09T01:07:03;5.50;;;2.40;;
61956;SDS011;47916;45.544;10.166;2022-09-09T01:07:18;6.18;;;2.70;;
61956;SDS011;47916;45.544;10.166;2022-09-09T01:07:29;8.07;;;2.75;;
61956;SDS011;47916;45.544;10.166;2022-09-09T01:07:40;9.07;;;2.85;;
61956;SDS011;47916;45.544;10.166;2022-09-09T01:07:55;6.93;;;2.75;;
61956;SDS011;47916;45.544;10.166;2022-09-09T01:08:23;7.35;;;2.78;;
61956;SDS011;47916;45.544;10.166;2022-09-09T01:09:32;3.90;;;2.60;;
61956;SDS011;47916;45.544;10.166;2022-09-09T01:09:57;7.90;;;2.70;;
61956;SDS011;47916;45.544;10.166;2022-09-09T01:10:15;6.05;;;2.55;;
61956;SDS011;47916;45.544;10.166;2022-09-09T01:10:36;9.70;;;3.50;;
61956;SDS011;47916;45.544;10.166;2022-09-09T01:10:50;7.93;;;2.90;;
61956;SDS011;47916;45.544;10.166;2022-09-09T01:11:02;7.10;;;2.80;;
61956;SDS011;47916;45.544;10.166;2022-09-09T01:11:33;7.75;;;2.83;;
61956;SDS011;47916;45.544;10.166;2022-09-09T01:12:35;6.00;;;2.72;;
61956;SDS011;47916;45.544;10.166;2022-09-09T01:12:49;6.57;;;2.72;;
61956;SDS011;47916;45.544;10.166;2022-09-09T01:13:03;6.45;;;2.75;;
61956;SDS011;47916;45.544;10.166;2022-09-09T01:13:25;5.60;;;2.60;;
61956;SDS011;47916;45.544;10.166;2022-09-09T01:13:37;7.45;;;2.65;;
61956;SDS011;47916;45.544;10.166;2022-09-09T01:13:49;7.05;;;2.75;;
61956;SDS011;47916;45.544;10.166;2022-09-09T01:14:16;6.07;;;3.00;;
61956;SDS011;47916;45.544;10.166;2022-09-09T01:14:48;7.07;;;2.78;;
61956;SDS011;47916;45.544;10.166;2022-09-09T01:15:22;7.22;;;2.80;;
61956;SDS011;47916;45.544;10.166;2022-09-09T01:15:35;6.65;;;2.83;;
61956;SDS011;47916;45.544;10.166;2022-09-09T01:15:46;5.60;;;2.60;;
61956;SDS011;47916;45.544;10.166;2022-09-09T01:15:59;6.47;;;3.10;;
61956;SDS011;47916;45.544;10.166;2022-09-09T01:16:12;7.32;;;3.08;;
61956;SDS011;47916;45.544;10.166;2022-09-09T01:16:24;6.13;;;2.42;;
61956;SDS011;47916;45.544;10.166;2022-09-09T01:16:36;7.03;;;2.63;;
61956;SDS011;47916;45.544;10.166;2022-09-09T01:16:47;6.88;;;2.80;;
61956;SDS011;47916;45.544;10.166;2022-09-09T01:17:31;7.63;;;2.70;;
61956;SDS011;47916;45.544;10.166;2022-09-09T01:17:46;6.93;;;2.85;;
61956;SDS011;47916;45.544;10.166;2022-09-09T01:18:10;4.68;;;2.63;;
61956;SDS011;47916;45.544;10.166;2022-09-09T01:18:23;4.95;;;2.88;;
61956;SDS011;47916;45.544;10.166;2022-09-09T01:18:39;6.13;;;2.78;;
61956;SDS011;47916;45.544;10.166;2022-09-09T01:18:51;7.03;;;2.65;;
61956;SDS011;47916;45.544;10.166;2022-09-09T01:19:04;5.65;;;2.50;;
61956;SDS011;47916;45.544;10.166;2022-09-09T01:19:21;4.10;;;2.38;;
61956;SDS011;47916;45.544;10.166;2022-09-09T01:20:26;8.32;;;2.85;;
61956;SDS011;47916;45.544;10.166;2022-09-09T01:20:46;5.07;;;2.25;;
61956;SDS011;47916;45.544;10.166;2022-09-09T01:21:56;6.10;;;2.65;;
61956;SDS011;47916;45.544;10.166;2022-09-09T01:23:25;8.90;;;2.97;;
61956;SDS011;47916;45.544;10.166;2022-09-09T01:24:27;7.13;;;2.53;;
61956;SDS011;47916;45.544;10.166;2022-09-09T01:24:45;5.55;;;2.70;;
61956;SDS011;47916;45.544;10.166;2022-09-09T01:26:35;5.07;;;2.50;;
61956;SDS011;47916;45.544;10.166;2022-09-09T01:26:48;5.78;;;2.50;;
61956;SDS011;47916;45.544;10.166;2022-09-09T01:27:03;6.50;;;2.70;;
61956;SDS011;47916;45.544;10.166;2022-09-09T01:27:16;5.97;;;2.60;;
61956;SDS011;47916;45.544;10.166;2022-09-09T01:27:28;6.25;;;2.67;;
61956;SDS011;47916;45.544;10.166;2022-09-09T01:27:40;7.95;;;2.90;;
61956;SDS011;47916;45.544;10.166;2022-09-09T01:27:55;8.13;;;2.80;;
61956;SDS011;47916;45.544;10.166;2022-09-09T01:28:08;6.80;;;2.55;;
61956;SDS011;47916;45.544;10.166;2022-09-09T01:28:21;6.63;;;2.55;;
61956;SDS011;47916;45.544;10.166;2022-09-09T01:28:33;5.13;;;2.80;;
61956;SDS011;47916;45.544;10.166;2022-09-09T01:28:46;4.75;;;2.80;;
61956;SDS011;47916;45.544;10.166;2022-09-09T01:28:58;4.82;;;2.25;;
61956;SDS011;47916;45.544;10.166;2022-09-09T01:29:11;5.85;;;2.35;;
61956;SDS011;47916;45.544;10.166;2022-09-09T01:29:22;6.15;;;2.40;;
61956;SDS011;47916;45.544;10.166;2022-09-09T01:29:34;5.35;;;2.50;;
61956;SDS011;47916;45.544;10.166;2022-09-09T01:29:45;4.85;;;2.35;;
61956;SDS011;47916;45.544;10.166;2022-09-09T01:29:56;8.40;;;2.63;;
61956;SDS011;47916;45.544;10.166;2022-09-09T01:30:09;9.27;;;2.67;;
61956;SDS011;47916;45.544;10.166;2022-09-09T01:30:21;7.07;;;2.35;;
61956;SDS011;47916;45.544;10.166;2022-09-09T01:30:33;5.70;;;2.40;;
61956;SDS011;47916;45.544;10.166;2022-09-09T01:30:45;6.65;;;2.63;;
61956;SDS011;47916;45.544;10.166;2022-09-09T01:47:02;7.07;;;2.92;;
61956;SDS011;47916;45.544;10.166;2022-09-09T01:47:14;6.50;;;2.42;;
61956;SDS011;47916;45.544;10.166;2022-09-09T01:47:26;5.30;;;2.22;;
61956;SDS011;47916;45.544;10.166;2022-09-09T01:47:37;5.78;;;2.30;;
61956;SDS011;47916;45.544;10.166;2022-09-09T01:47:49;5.88;;;2.45;;
61956;SDS011;47916;45.544;10.166;2022-09-09T01:48:00;6.13;;;2.40;;
61956;SDS011;47916;45.544;10.166;2022-09-09T01:48:11;5.10;;;2.50;;
61956;SDS011;47916;45.544;10.166;2022-09-09T01:48:23;6.25;;;2.50;;
61956;SDS011;47916;45.544;10.166;2022-09-09T01:48:35;6.65;;;2.70;;
61956;SDS011;47916;45.544;10.166;2022-09-09T01:48:47;7.82;;;2.83;;
61956;SDS011;47916;45.544;10.166;2022-09-09T01:48:58;8.20;;;3.03;;
61956;SDS011;47916;45.544;10.166;2022-09-09T01:49:11;6.95;;;2.78;;
61956;SDS011;47916;45.544;10.166;2022-09-09T01:49:23;5.35;;;2.60;;
61956;SDS011;47916;45.544;10.166;2022-09-09T01:49:34;4.15;;;2.50;;
61956;SDS011;47916;45.544;10.166;2022-09-09T01:49:45;4.47;;;2.53;;
61956;SDS011;47916;45.544;10.166;2022-09-09T01:49:56;4.55;;;2.50;;
61956;SDS011;47916;45.544;10.166;2022-09-09T01:50:08;4.68;;;2.30;;
61956;SDS011;47916;45.544;10.166;2022-09-09T01:50:21;6.85;;;2.25;;
61956;SDS011;47916;45.544;10.166;2022-09-09T01:50:32;7.55;;;2.33;;
61956;SDS011;47916;45.544;10.166;2022-09-09T01:50:43;7.35;;;2.53;;
61956;SDS011;47916;45.544;10.166;2022-09-09T01:50:54;8.73;;;2.65;;
61956;SDS011;47916;45.544;10.166;2022-09-09T01:51:07;9.25;;;2.53;;
61956;SDS011;47916;45.544;10.166;2022-09-09T01:51:18;8.07;;;2.55;;
61956;SDS011;47916;45.544;10.166;2022-09-09T01:51:29;8.13;;;2.47;;
61956;SDS011;47916;45.544;10.166;2022-09-09T01:51:41;10.88;;;2.50;;
61956;SDS011;47916;45.544;10.166;2022-09-09T01:51:54;11.82;;;2.58;;
61956;SDS011;47916;45.544;10.166;2022-09-09T01:52:06;10.27;;;2.83;;
61956;SDS011;47916;45.544;10.166;2022-09-09T01:52:17;9.68;;;2.83;;
61956;SDS011;47916;45.544;10.166;2022-09-09T01:52:29;6.38;;;2.50;;
61956;SDS011;47916;45.544;10.166;2022-09-09T01:52:40;6.80;;;2.42;;
61956;SDS011;47916;45.544;10.166;2022-09-09T01:52:53;6.00;;;2.42;;
61956;SDS011;47916;45.544;10.166;2022-09-09T01:53:06;4.70;;;2.30;;
61956;SDS011;47916;45.544;10.166;2022-09-09T01:53:18;5.03;;;2.35;;
61956;SDS011;47916;45.544;10.166;2022-09-09T01:53:30;8.25;;;2.40;;
61956;SDS011;47916;45.544;10.166;2022-09-09T01:53:41;8.95;;;2.65;;
61956;SDS011;47916;45.544;10.166;2022-09-09T01:53:54;6.72;;;2.80;;
61956;SDS011;47916;45.544;10.166;2022-09-09T01:54:05;6.45;;;2.75;;
61956;SDS011;47916;45.544;10.166;2022-09-09T01:54:17;7.07;;;2.58;;
61956;SDS011;47916;45.544;10.166;2022-09-09T01:54:30;6.03;;;2.50;;
61956;SDS011;47916;45.544;10.166;2022-09-09T01:54:43;9.05;;;2.70;;
61956;SDS011;47916;45.544;10.166;2022-09-09T01:54:54;10.25;;;3.17;;
61956;SDS011;47916;45.544;10.166;2022-09-09T01:55:06;8.85;;;2.95;;
61956;SDS011;47916;45.544;10.166;2022-09-09T01:55:18;5.65;;;2.97;;
61956;SDS011;47916;45.544;10.166;2022-09-09T01:55:40;5.88;;;2.90;;
61956;SDS011;47916;45.544;10.166;2022-09-09T01:56:05;5.45;;;2.42;;
61956;SDS011;47916;45.544;10.166;2022-09-09T01:57:02;6.45;;;2.75;;
61956;SDS011;47916;45.544;10.166;2022-09-09T01:57:33;7.95;;;2.72;;
61956;SDS011;47916;45.544;10.166;2022-09-09T01:57:51;6.88;;;2.67;;
61956;SDS011;47916;45.544;10.166;2022-09-09T01:58:57;9.13;;;2.75;;
61956;SDS011;47916;45.544;10.166;2022-09-09T01:59:44;7.28;;;3.10;;
61956;SDS011;47916;45.544;10.166;2022-09-09T02:00:07;7.38;;;3.33;;
61956;SDS011;47916;45.544;10.166;2022-09-09T02:00:18;8.73;;;2.75;;
61956;SDS011;47916;45.544;10.166;2022-09-09T02:00:30;7.88;;;2.65;;
61956;SDS011;47916;45.544;10.166;2022-09-09T02:00:43;7.15;;;3.03;;
61956;SDS011;47916;45.544;10.166;2022-09-09T02:01:31;6.88;;;3.10;;
61956;SDS011;47916;45.544;10.166;2022-09-09T02:01:36;6.07;;;2.50;;
61956;SDS011;47916;45.544;10.166;2022-09-09T02:02:18;7.07;;;3.00;;
61956;SDS011;47916;45.544;10.166;2022-09-09T02:02:44;7.90;;;2.80;;
61956;SDS011;47916;45.544;10.166;2022-09-09T02:03:26;7.07;;;2.60;;
61956;SDS011;47916;45.544;10.166;2022-09-09T02:03:38;9.65;;;3.08;;
61956;SDS011;47916;45.544;10.166;2022-09-09T02:03:52;8.98;;;3.22;;
61956;SDS011;47916;45.544;10.166;2022-09-09T02:04:08;8.50;;;3.25;;
61956;SDS011;47916;45.544;10.166;2022-09-09T02:04:27;6.72;;;3.05;;
61956;SDS011;47916;45.544;10.166;2022-09-09T02:04:44;6.15;;;2.90;;
61956;SDS011;47916;45.544;10.166;2022-09-09T02:04:59;7.03;;;2.80;;
61956;SDS011;47916;45.544;10.166;2022-09-09T02:06:36;6.78;;;3.03;;
61956;SDS011;47916;45.544;10.166;2022-09-09T02:06:48;7.85;;;3.28;;
61956;SDS011;47916;45.544;10.166;2022-09-09T02:07:04;8.65;;;2.85;;
61956;SDS011;47916;45.544;10.166;2022-09-09T02:07:41;7.82;;;3.17;;
61956;SDS011;47916;45.544;10.166;2022-09-09T02:08:00;9.02;;;3.20;;
61956;SDS011;47916;45.544;10.166;2022-09-09T02:08:20;7.78;;;3.15;;
61956;SDS011;47916;45.544;10.166;2022-09-09T02:08:49;10.88;;;4.20;;
61956;SDS011;47916;45.544;10.166;2022-09-09T02:09:02;7.50;;;3.40;;
61956;SDS011;47916;45.544;10.166;2022-09-09T02:09:14;9.07;;;3.10;;
61956;SDS011;47916;45.544;10.166;2022-09-09T02:09:29;9.20;;;3.63;;
61956;SDS011;47916;45.544;10.166;2022-09-09T02:09:41;6.75;;;3.28;;
61956;SDS011;47916;45.544;10.166;2022-09-09T02:09:57;6.38;;;2.85;;
61956;SDS011;47916;45.544;10.166;2022-09-09T02:10:33;8.57;;;3.40;;
61956;SDS011;47916;45.544;10.166;2022-09-09T02:11:19;10.45;;;3.25;;
61956;SDS011;47916;45.544;10.166;2022-09-09T02:11:30;6.43;;;3.08;;
61956;SDS011;47916;45.544;10.166;2022-09-09T02:11:42;7.88;;;3.42;;
61956;SDS011;47916;45.544;10.166;2022-09-09T02:11:57;7.20;;;3.20;;
61956;SDS011;47916;45.544;10.166;2022-09-09T02:12:11;8.60;;;2.78;;
61956;SDS011;47916;45.544;10.166;2022-09-09T02:12:24;8.95;;;3.03;;
61956;SDS011;47916;45.544;10.166;2022-09-09T02:12:38;8.70;;;3.10;;
61956;SDS011;47916;45.544;10.166;2022-09-09T02:12:53;12.50;;;2.92;;
61956;SDS011;47916;45.544;10.166;2022-09-09T02:13:07;11.88;;;2.90;;
61956;SDS011;47916;45.544;10.166;2022-09-09T02:13:19;12.02;;;2.92;;
61956;SDS011;47916;45.544;10.166;2022-09-09T02:13:32;13.52;;;3.10;;
61956;SDS011;47916;45.544;10.166;2022-09-09T02:13:46;12.30;;;2.95;;
61956;SDS011;47916;45.544;10.166;2022-09-09T02:14:03;6.20;;;2.97;;
61956;SDS011;47916;45.544;10.166;2022-09-09T02:14:22;5.63;;;2.90;;
61956;SDS011;47916;45.544;10.166;2022-09-09T02:14:36;8.48;;;3.13;;
61956;SDS011;47916;45.544;10.166;2022-09-09T02:15:00;8.50;;;3.08;;
61956;SDS011;47916;45.544;10.166;2022-09-09T02:15:27;7.07;;;2.80;;
61956;SDS011;47916;45.544;10.166;2022-09-09T02:16:08;11.20;;;3.33;;
61956;SDS011;47916;45.544;10.166;2022-09-09T02:16:37;8.52;;;2.83;;
61956;SDS011;47916;45.544;10.166;2022-09-09T02:16:50;9.00;;;3.10;;
61956;SDS011;47916;45.544;10.166;2022-09-09T02:17:08;7.30;;;3.55;;
61956;SDS011;47916;45.544;10.166;2022-09-09T02:17:27;8.25;;;3.33;;
61956;SDS011;47916;45.544;10.166;2022-09-09T02:17:40;9.40;;;2.92;;
61956;SDS011;47916;45.544;10.166;2022-09-09T02:17:52;8.45;;;2.95;;
61956;SDS011;47916;45.544;10.166;2022-09-09T02:18:04;6.95;;;3.10;;
61956;SDS011;47916;45.544;10.166;2022-09-09T02:18:20;7.32;;;3.10;;
61956;SDS011;47916;45.544;10.166;2022-09-09T02:18:39;8.00;;;3.22;;
61956;SDS011;47916;45.544;10.166;2022-09-09T02:19:15;11.15;;;3.40;;
61956;SDS011;47916;45.544;10.166;2022-09-09T02:19:29;11.73;;;3.63;;
61956;SDS011;47916;45.544;10.166;2022-09-09T02:19:45;10.00;;;3.15;;
61956;SDS011;47916;45.544;10.166;2022-09-09T02:20:03;7.75;;;3.10;;
61956;SDS011;47916;45.544;10.166;2022-09-09T02:20:15;8.20;;;3.40;;
61956;SDS011;47916;45.544;10.166;2022-09-09T02:20:28;7.80;;;3.08;;
61956;SDS011;47916;45.544;10.166;2022-09-09T02:20:45;8.18;;;3.20;;
61956;SDS011;47916;45.544;10.166;2022-09-09T02:20:57;8.57;;;3.03;;
61956;SDS011;47916;45.544;10.166;2022-09-09T02:21:09;9.50;;;3.13;;
61956;SDS011;47916;45.544;10.166;2022-09-09T02:21:22;7.32;;;3.13;;
61956;SDS011;47916;45.544;10.166;2022-09-09T02:21:34;6.07;;;3.10;;
61956;SDS011;47916;45.544;10.166;2022-09-09T02:21:46;7.90;;;2.92;;
61956;SDS011;47916;45.544;10.166;2022-09-09T02:21:57;8.52;;;2.83;;
61956;SDS011;47916;45.544;10.166;2022-09-09T02:22:10;8.43;;;2.50;;
61956;SDS011;47916;45.544;10.166;2022-09-09T02:22:22;8.25;;;2.78;;
61956;SDS011;47916;45.544;10.166;2022-09-09T02:22:34;8.65;;;2.80;;
61956;SDS011;47916;45.544;10.166;2022-09-09T02:22:49;6.07;;;2.63;;
61956;SDS011;47916;45.544;10.166;2022-09-09T02:23:01;6.70;;;2.88;;
61956;SDS011;47916;45.544;10.166;2022-09-09T02:23:12;6.70;;;2.92;;
61956;SDS011;47916;45.544;10.166;2022-09-09T02:23:25;7.65;;;2.88;;
61956;SDS011;47916;45.544;10.166;2022-09-09T02:23:37;7.75;;;2.70;;
61956;SDS011;47916;45.544;10.166;2022-09-09T02:23:50;8.13;;;2.85;;
61956;SDS011;47916;45.544;10.166;2022-09-09T02:24:06;9.98;;;2.90;;
61956;SDS011;47916;45.544;10.166;2022-09-09T02:24:18;10.55;;;2.92;;